This is the latest recevied weather packets stored in our database for station/object KQ4UPF. If no packets are shown the sender has not sent any weather packets the latest 10 day(s).
| Time | Temp. | Humidity | Pressure | Rain* | Wind** | Luminosity | Snow |
|---|---|---|---|---|---|---|---|
| 1777579851 | 19.44° C | 48% | 1014.9 hPa | 0 mm | - | 590 W/m² | - |
| 1777579550 | 19.44° C | 44% | 1014.8 hPa | 0 mm | - | 640 W/m² | - |
| 1777579250 | 18.89° C | 54% | 1015.1 hPa | 0 mm | - | 522 W/m² | - |
| 1777578946 | 18.89° C | 49% | 1015 hPa | 0 mm | - | 415 W/m² | - |
| 1777578641 | 18.89° C | 50% | 1015 hPa | 0 mm | - | 413 W/m² | - |
| 1777578340 | 18.89° C | 50% | 1015.2 hPa | 0 mm | - | 491 W/m² | - |
| 1777578038 | 18.89° C | 46% | 1015.2 hPa | 0 mm | - | 471 W/m² | - |
| 1777577738 | 19.44° C | 47% | 1015.3 hPa | 0 mm | - | 526 W/m² | - |
| 1777577435 | 19.44° C | 47% | 1015.2 hPa | 0 mm | - | 667 W/m² | - |
| 1777577132 | 19.44° C | 45% | 1015.3 hPa | 0 mm | - | 669 W/m² | - |
| 1777576828 | 19.44° C | 49% | 1015.3 hPa | 0 mm | - | 772 W/m² | - |
| 1777576527 | 18.89° C | 51% | 1015.2 hPa | 0 mm | - | 751 W/m² | - |
| 1777576223 | 18.89° C | 51% | 1015.3 hPa | 0 mm | - | 578 W/m² | - |
| 1777575919 | 18.89° C | 53% | 1015.4 hPa | 0 mm | - | 521 W/m² | - |
| 1777575616 | 18.89° C | 50% | 1015.3 hPa | 0 mm | - | 478 W/m² | - |
| 1777575312 | 18.89° C | 53% | 1015.5 hPa | 0 mm | - | 524 W/m² | - |
| 1777575008 | 18.89° C | 51% | 1015.3 hPa | 0 mm | - | 571 W/m² | - |
| 1777574704 | 18.89° C | 54% | 1015.3 hPa | 0 mm | - | 512 W/m² | - |
| 1777574401 | 18.89° C | 55% | 1015.5 hPa | 0 mm | - | 543 W/m² | - |
| 1777574096 | 18.89° C | 58% | 1015.5 hPa | 0 mm | - | 656 W/m² | - |
| 1777573792 | 18.89° C | 52% | 1015.2 hPa | 0 mm | - | 710 W/m² | - |
| 1777573488 | 18.89° C | 51% | 1015.2 hPa | 0 mm | - | 660 W/m² | - |
| 1777573184 | 18.89° C | 52% | 1015.2 hPa | 0 mm | - | 569 W/m² | - |
| 1777572881 | 18.89° C | 58% | 1015.2 hPa | 0 mm | - | 698 W/m² | - |
| 1777572577 | 18.89° C | 56% | 1015.2 hPa | 0 mm | - | 783 W/m² | - |
* Rain latest hour (hover to see other rain measurements)
** Current wind speed in m/s (hover to see current wind gust speed)